createdAt,value
2024-05-09T00:00:39.195Z,2.40
2024-05-09T00:03:08.578Z,2.92
2024-05-09T00:05:36.914Z,2.20
2024-05-09T00:08:04.689Z,1.98
2024-05-09T00:10:36.545Z,1.40
2024-05-09T00:13:07.393Z,1.60
2024-05-09T00:15:35.268Z,1.48
2024-05-09T00:18:03.311Z,2.05
2024-05-09T00:20:37.660Z,1.10
2024-05-09T00:23:12.291Z,3.07
2024-05-09T00:25:40.810Z,0.93
2024-05-09T00:28:07.709Z,1.23
2024-05-09T00:30:36.660Z,1.25
2024-05-09T00:33:06.520Z,1.30
2024-05-09T00:35:35.074Z,1.43
2024-05-09T00:38:02.306Z,3.38
2024-05-09T00:40:39.741Z,1.55
2024-05-09T00:43:10.240Z,1.83
2024-05-09T00:45:37.263Z,2.22
2024-05-09T00:48:07.693Z,3.70
2024-05-09T00:50:38.129Z,2.63
2024-05-09T00:53:11.488Z,1.88
2024-05-09T00:55:39.756Z,2.05
2024-05-09T00:58:07.962Z,1.80
2024-05-09T01:00:39.346Z,1.80
2024-05-09T01:03:10.637Z,2.15
2024-05-09T01:05:39.915Z,3.85
2024-05-09T01:08:07.811Z,2.03
2024-05-09T01:10:36.218Z,2.40
2024-05-09T01:13:07.518Z,2.40
2024-05-09T01:15:35.828Z,2.17
2024-05-09T01:18:11.526Z,2.38
2024-05-09T01:20:42.848Z,2.28
2024-05-09T01:23:14.228Z,3.58
2024-05-09T01:25:43.235Z,3.37
2024-05-09T01:28:10.357Z,1.63
2024-05-09T01:30:38.088Z,2.33
2024-05-09T01:33:08.856Z,1.77
2024-05-09T01:35:37.720Z,3.08
2024-05-09T01:38:05.347Z,1.27
2024-05-09T01:40:37.868Z,1.60
2024-05-09T01:43:08.437Z,2.10
2024-05-09T01:45:36.260Z,3.05
2024-05-09T01:48:03.741Z,2.53
2024-05-09T01:53:00.732Z,4.60
2024-05-09T01:55:27.624Z,4.28
2024-05-09T01:57:54.425Z,4.97
2024-05-09T02:00:30.683Z,4.40
2024-05-09T02:03:05.397Z,6.23
2024-05-09T02:05:32.532Z,6.07
2024-05-09T02:07:59.433Z,7.43
2024-05-09T02:10:32.169Z,7.70
2024-05-09T02:13:00.049Z,8.35
2024-05-09T02:15:26.882Z,9.30
2024-05-09T02:17:54.037Z,9.05
2024-05-09T02:20:30.174Z,12.90
2024-05-09T02:23:04.593Z,10.60
2024-05-09T02:25:32.516Z,9.18
2024-05-09T02:27:59.599Z,10.80
2024-05-09T02:30:36.198Z,10.52
2024-05-09T02:33:07.923Z,10.68
2024-05-09T02:35:35.338Z,12.05
2024-05-09T02:38:02.343Z,10.73
2024-05-09T02:40:36.529Z,10.50
2024-05-09T02:43:06.436Z,9.60
2024-05-09T02:45:33.590Z,10.15
2024-05-09T02:48:01.362Z,10.75
2024-05-09T02:50:34.347Z,11.85
2024-05-09T02:53:06.218Z,11.87
2024-05-09T02:55:34.513Z,12.43
2024-05-09T02:58:01.401Z,10.43
2024-05-09T03:00:36.790Z,10.75
2024-05-09T03:03:12.889Z,10.57
2024-05-09T03:05:42.762Z,10.23
2024-05-09T03:08:09.916Z,9.60
2024-05-09T03:10:38.690Z,10.85
2024-05-09T03:13:15.085Z,11.73
2024-05-09T03:15:43.291Z,9.18
2024-05-09T03:18:10.993Z,10.93
2024-05-09T03:20:39.350Z,8.43
2024-05-09T03:23:09.319Z,7.75
2024-05-09T03:25:37.328Z,8.63
2024-05-09T03:28:04.398Z,5.60
2024-05-09T03:30:39.761Z,5.87
2024-05-09T03:33:15.501Z,5.03
2024-05-09T03:35:46.143Z,4.90
2024-05-09T03:38:13.224Z,4.78
2024-05-09T03:40:47.047Z,5.47
2024-05-09T03:43:14.617Z,5.27
2024-05-09T03:45:42.958Z,8.40
2024-05-09T03:48:10.160Z,7.75
2024-05-09T03:50:37.669Z,9.20
2024-05-09T03:53:05.337Z,8.95
2024-05-09T03:55:32.355Z,9.60
2024-05-09T03:57:59.441Z,9.60
2024-05-09T04:00:35.022Z,8.70
2024-05-09T04:03:08.577Z,8.68
2024-05-09T04:05:40.427Z,10.10
2024-05-09T04:08:08.340Z,9.80
2024-05-09T04:10:35.798Z,8.80
2024-05-09T04:13:04.087Z,10.15
2024-05-09T04:15:31.765Z,8.88
2024-05-09T04:17:59.093Z,8.52
2024-05-09T04:22:56.070Z,8.30
2024-05-09T04:25:22.918Z,8.45
2024-05-09T04:27:49.784Z,6.88
2024-05-09T04:30:25.497Z,7.15
2024-05-09T04:32:58.225Z,13.63
2024-05-09T04:35:25.346Z,7.85
2024-05-09T04:37:52.367Z,7.55
2024-05-09T04:40:28.059Z,6.72
2024-05-09T04:43:00.029Z,7.13
2024-05-09T04:45:26.849Z,7.40
2024-05-09T04:47:54.694Z,7.43
2024-05-09T04:50:30.012Z,6.75
2024-05-09T04:53:03.340Z,6.53
2024-05-09T04:55:30.490Z,7.72
2024-05-09T04:57:57.630Z,6.97
2024-05-09T05:00:32.552Z,7.43
2024-05-09T05:03:10.341Z,6.22
2024-05-09T05:05:43.291Z,7.47
2024-05-09T05:08:12.587Z,7.32
2024-05-09T05:10:40.010Z,8.13
2024-05-09T05:13:17.729Z,7.18
2024-05-09T05:15:50.063Z,6.15
2024-05-09T05:18:17.607Z,6.35
2024-05-09T05:20:45.172Z,6.90
2024-05-09T05:23:14.384Z,7.20
2024-05-09T05:25:42.070Z,9.43
2024-05-09T05:28:09.130Z,8.25
2024-05-09T05:30:37.990Z,8.45
2024-05-09T05:33:06.546Z,11.43
2024-05-09T05:35:34.699Z,7.37
2024-05-09T05:38:01.870Z,8.48
2024-05-09T05:40:36.194Z,8.82
2024-05-09T05:43:09.865Z,9.25
2024-05-09T05:45:37.090Z,8.32
2024-05-09T05:48:06.244Z,7.70
2024-05-09T05:50:36.962Z,10.80
2024-05-09T05:53:09.595Z,6.70
2024-05-09T05:55:39.956Z,10.30
2024-05-09T05:58:10.930Z,8.43
2024-05-09T06:00:39.955Z,11.83
2024-05-09T06:03:09.158Z,7.88
2024-05-09T06:05:37.422Z,10.70
2024-05-09T06:08:04.876Z,9.68
2024-05-09T06:10:38.067Z,9.63
2024-05-09T06:13:07.905Z,11.07
2024-05-09T06:15:34.953Z,7.32
2024-05-09T06:18:02.198Z,6.97
2024-05-09T06:20:35.760Z,12.00
2024-05-09T06:23:06.181Z,7.60
2024-05-09T06:25:33.883Z,9.00
2024-05-09T06:28:01.842Z,7.85
2024-05-09T06:30:37.077Z,7.82
2024-05-09T06:33:08.274Z,9.52
2024-05-09T06:35:36.664Z,9.30
2024-05-09T06:38:04.291Z,11.53
2024-05-09T06:40:37.368Z,10.73
2024-05-09T06:43:11.796Z,10.63
2024-05-09T06:45:40.074Z,10.38
2024-05-09T06:48:08.704Z,8.93
2024-05-09T06:50:38.110Z,10.33
2024-05-09T06:53:07.498Z,5.95
2024-05-09T06:55:34.464Z,6.15
2024-05-09T06:58:01.266Z,6.93
2024-05-09T07:00:35.670Z,7.65
2024-05-09T07:03:16.206Z,8.93
2024-05-09T07:05:46.438Z,7.25
2024-05-09T07:08:14.360Z,5.75
2024-05-09T07:10:41.492Z,5.68
2024-05-09T07:13:12.668Z,4.70
2024-05-09T07:15:40.585Z,6.77
2024-05-09T07:18:11.229Z,4.93
2024-05-09T07:20:39.347Z,4.00
2024-05-09T07:23:09.669Z,6.95
2024-05-09T07:25:37.099Z,6.32
2024-05-09T07:28:04.197Z,5.57
2024-05-09T07:30:34.172Z,1.98
2024-05-09T07:33:02.845Z,1.55
2024-05-09T07:35:30.921Z,2.75
2024-05-09T07:37:58.061Z,2.20
2024-05-09T07:40:32.865Z,1.60
2024-05-09T07:43:13.334Z,1.05
2024-05-09T07:45:49.940Z,1.30
2024-05-09T07:52:38.648Z,0.93
2024-05-09T07:53:49.636Z,1.67
2024-05-09T07:56:22.174Z,4.18
2024-05-09T07:58:51.900Z,1.48
2024-05-09T08:01:19.750Z,3.22
2024-05-09T08:03:47.071Z,1.58
2024-05-09T08:06:14.255Z,1.50
2024-05-09T08:08:41.155Z,1.05
2024-05-09T08:11:08.051Z,1.60
2024-05-09T08:13:34.976Z,1.20
2024-05-09T08:16:01.915Z,1.20
2024-05-09T08:18:29.098Z,1.40
2024-05-09T08:20:56.448Z,2.00
2024-05-09T08:23:23.994Z,1.42
2024-05-09T08:25:51.179Z,1.77
2024-05-09T08:28:18.143Z,1.65
2024-05-09T08:30:45.722Z,1.97
2024-05-09T08:33:12.707Z,1.63
2024-05-09T08:35:39.630Z,1.70
2024-05-09T08:38:07.428Z,1.70
2024-05-09T08:40:37.544Z,1.20
2024-05-09T08:43:10.992Z,2.10
2024-05-09T08:45:43.653Z,1.70
2024-05-09T08:48:14.143Z,2.22
2024-05-09T08:50:42.018Z,1.40
2024-05-09T08:53:09.304Z,2.22
2024-05-09T08:55:40.465Z,1.10
2024-05-09T08:58:14.453Z,2.22
2024-05-09T09:00:43.793Z,1.20
2024-05-09T09:03:16.159Z,1.75
2024-05-09T09:05:53.267Z,2.58
2024-05-09T09:08:20.566Z,6.03
2024-05-09T09:10:47.906Z,1.90
2024-05-09T09:13:14.905Z,1.30
2024-05-09T09:15:48.811Z,1.20
2024-05-09T09:18:16.516Z,1.33
2024-05-09T09:20:44.161Z,1.50
2024-05-09T09:23:11.072Z,1.92
2024-05-09T09:25:41.133Z,2.38
2024-05-09T09:28:08.960Z,2.03
2024-05-09T09:30:46.075Z,1.42
2024-05-09T09:33:13.146Z,1.40
2024-05-09T09:35:40.804Z,2.70
2024-05-09T09:38:10.651Z,1.63
2024-05-09T09:40:45.794Z,1.45
2024-05-09T09:43:19.933Z,1.95
2024-05-09T09:45:50.076Z,1.40
2024-05-09T09:48:17.492Z,1.83
2024-05-09T09:50:45.516Z,1.80
2024-05-09T09:53:14.026Z,2.30
2024-05-09T09:55:42.297Z,1.90
2024-05-09T09:58:13.247Z,1.83
2024-05-09T10:00:41.454Z,2.75
2024-05-09T10:03:08.758Z,2.17
2024-05-09T10:05:36.733Z,2.63
2024-05-09T10:08:06.509Z,1.73
2024-05-09T10:10:35.652Z,1.60
2024-05-09T10:13:09.177Z,2.25
2024-05-09T10:15:52.869Z,2.20
2024-05-09T10:18:28.309Z,2.97
2024-05-09T10:20:57.673Z,3.15
2024-05-09T10:23:32.641Z,1.60
2024-05-09T10:26:05.953Z,2.25
2024-05-09T10:28:35.543Z,2.15
2024-05-09T10:31:13.960Z,1.83
2024-05-09T10:33:49.701Z,2.42
2024-05-09T10:36:22.615Z,3.50
2024-05-09T10:38:50.639Z,1.90
2024-05-09T10:41:18.640Z,1.35
2024-05-09T10:43:46.350Z,1.58
2024-05-09T10:46:14.824Z,1.90
2024-05-09T10:48:44.073Z,1.93
2024-05-09T10:51:11.871Z,1.90
2024-05-09T10:53:46.138Z,1.50
2024-05-09T10:56:16.735Z,2.35
2024-05-09T10:58:43.853Z,1.45
2024-05-09T11:01:11.142Z,1.70
2024-05-09T11:03:39.299Z,4.93
2024-05-09T11:06:07.364Z,1.70
2024-05-09T11:08:36.073Z,1.33
2024-05-09T11:11:07.649Z,1.30
2024-05-09T11:13:39.558Z,2.00
2024-05-09T11:16:16.467Z,1.58
2024-05-09T11:18:43.953Z,1.73
2024-05-09T11:21:14.152Z,1.80
2024-05-09T11:23:41.769Z,1.70
2024-05-09T11:26:09.282Z,1.37
2024-05-09T11:28:36.218Z,1.73
2024-05-09T11:31:08.733Z,2.20
2024-05-09T11:33:48.206Z,1.25
2024-05-09T11:36:15.659Z,1.42
2024-05-09T11:38:42.727Z,1.63
2024-05-09T11:41:16.527Z,1.40
2024-05-09T11:43:43.519Z,1.60
2024-05-09T11:46:10.686Z,1.60
2024-05-09T11:48:39.559Z,3.28
2024-05-09T11:51:06.509Z,2.20
2024-05-09T11:53:33.309Z,3.20
2024-05-09T11:56:00.173Z,5.15
2024-05-09T11:58:28.471Z,4.22
2024-05-09T12:00:55.445Z,2.08
2024-05-09T12:03:22.363Z,3.60
2024-05-09T12:05:49.392Z,6.00
2024-05-09T12:08:16.562Z,4.93
2024-05-09T12:10:43.621Z,4.05
2024-05-09T12:13:10.698Z,2.72
2024-05-09T12:15:38.771Z,1.93
2024-05-09T12:18:07.639Z,1.52
2024-05-09T12:20:38.349Z,1.65
2024-05-09T12:23:08.253Z,2.58
2024-05-09T12:25:36.893Z,1.67
2024-05-09T12:28:04.364Z,1.53
2024-05-09T12:30:36.937Z,1.30
2024-05-09T12:33:12.925Z,3.17
2024-05-09T12:35:43.335Z,1.65
2024-05-09T12:38:13.335Z,4.40
2024-05-09T12:40:40.221Z,1.87
2024-05-09T12:43:08.763Z,1.13
2024-05-09T12:45:37.021Z,3.78
2024-05-09T12:48:07.117Z,1.33
2024-05-09T12:50:34.864Z,1.70
2024-05-09T12:53:03.157Z,1.77
2024-05-09T12:55:37.371Z,3.20
2024-05-09T12:58:12.265Z,1.92
2024-05-09T13:00:39.359Z,1.80
2024-05-09T13:03:07.801Z,2.85
2024-05-09T13:05:34.971Z,2.60
2024-05-09T13:08:03.636Z,1.80
2024-05-09T13:10:32.807Z,3.40
2024-05-09T13:13:01.498Z,1.92
2024-05-09T13:15:31.011Z,1.58
2024-05-09T13:18:01.651Z,1.10
2024-05-09T13:20:33.617Z,2.35
2024-05-09T13:23:04.290Z,2.17
2024-05-09T13:25:31.566Z,1.40
2024-05-09T13:27:58.768Z,2.22
2024-05-09T13:30:33.669Z,3.00
2024-05-09T13:33:06.983Z,1.98
2024-05-09T13:35:35.526Z,1.85
2024-05-09T13:38:04.260Z,2.85
2024-05-09T13:40:34.634Z,2.92
2024-05-09T13:43:06.182Z,4.10
2024-05-09T13:45:34.235Z,2.72
2024-05-09T13:48:02.720Z,1.80
2024-05-09T13:50:35.908Z,2.17
2024-05-09T13:53:06.443Z,2.28
2024-05-09T13:55:35.489Z,2.20
2024-05-09T13:58:02.813Z,2.13
2024-05-09T14:02:59.453Z,2.70
2024-05-09T14:05:26.424Z,2.55
2024-05-09T14:07:53.348Z,2.23
2024-05-09T14:10:26.149Z,4.15
2024-05-09T14:12:57.651Z,3.38
2024-05-09T14:15:24.464Z,3.40
2024-05-09T14:17:51.319Z,3.42
2024-05-09T14:20:28.396Z,3.03
2024-05-09T14:22:58.537Z,2.00
2024-05-09T14:25:27.258Z,2.30
2024-05-09T14:27:54.380Z,3.50
2024-05-09T14:30:30.278Z,2.55
2024-05-09T14:33:03.201Z,2.87
2024-05-09T14:35:30.221Z,2.17
2024-05-09T14:37:57.159Z,2.00
2024-05-09T14:42:53.787Z,3.25
2024-05-09T14:45:20.616Z,2.13
2024-05-09T14:47:47.586Z,2.03
2024-05-09T14:50:23.656Z,1.98
2024-05-09T14:52:55.050Z,2.90
2024-05-09T14:55:21.933Z,2.20
2024-05-09T14:57:49.171Z,2.10
2024-05-09T15:00:24.788Z,1.77
2024-05-09T15:02:55.366Z,2.42
2024-05-09T15:05:22.317Z,1.38
2024-05-09T15:07:49.356Z,2.33
2024-05-09T15:10:23.851Z,2.57
2024-05-09T15:12:58.450Z,4.43
2024-05-09T15:15:25.421Z,3.83
2024-05-09T15:17:52.622Z,2.72
2024-05-09T15:20:27.748Z,2.60
2024-05-09T15:23:01.160Z,3.53
2024-05-09T15:25:28.098Z,3.90
2024-05-09T15:27:55.285Z,2.88
2024-05-09T15:30:30.042Z,1.98
2024-05-09T15:32:59.478Z,2.90
2024-05-09T15:35:26.363Z,3.33
2024-05-09T15:37:53.371Z,4.80
2024-05-09T15:40:30.451Z,4.15
2024-05-09T15:43:04.689Z,4.20
2024-05-09T15:45:32.135Z,3.10
2024-05-09T15:47:59.606Z,3.73
2024-05-09T15:50:36.244Z,4.40
2024-05-09T15:53:07.594Z,3.63
2024-05-09T15:55:35.525Z,3.03
2024-05-09T15:58:04.179Z,4.22
2024-05-09T16:03:01.575Z,3.58
2024-05-09T16:05:28.609Z,5.28
2024-05-09T16:07:55.612Z,3.38
2024-05-09T16:10:26.057Z,4.15
2024-05-09T16:12:59.082Z,4.47
2024-05-09T16:15:26.151Z,4.13
2024-05-09T16:17:54.047Z,3.25
2024-05-09T16:20:33.428Z,5.20
2024-05-09T16:23:05.735Z,4.05
2024-05-09T16:25:32.629Z,4.53
2024-05-09T16:28:00.101Z,5.13
2024-05-09T16:30:31.948Z,2.97
2024-05-09T16:33:03.229Z,3.13
2024-05-09T16:35:32.106Z,4.30
2024-05-09T16:37:59.224Z,7.00
2024-05-09T16:40:34.576Z,3.85
2024-05-09T16:43:06.533Z,3.42
2024-05-09T16:45:33.839Z,3.67
2024-05-09T16:48:01.680Z,7.95
2024-05-09T16:50:33.340Z,4.37
2024-05-09T16:53:02.953Z,6.97
2024-05-09T16:55:30.063Z,4.13
2024-05-09T16:57:57.266Z,3.40
2024-05-09T17:00:35.640Z,3.72
2024-05-09T17:03:09.272Z,6.67
2024-05-09T17:05:36.999Z,4.72
2024-05-09T17:08:04.548Z,3.10
2024-05-09T17:10:33.933Z,3.92
2024-05-09T17:13:03.595Z,3.75
2024-05-09T17:15:32.452Z,4.40
2024-05-09T17:17:59.741Z,2.63
2024-05-09T17:20:32.910Z,5.47
2024-05-09T17:23:03.174Z,3.70
2024-05-09T17:25:31.247Z,3.38
2024-05-09T17:28:05.432Z,5.03
2024-05-09T17:30:36.590Z,3.65
2024-05-09T17:33:06.743Z,3.08
2024-05-09T17:35:35.353Z,3.65
2024-05-09T17:38:02.231Z,4.68
2024-05-09T17:40:33.756Z,2.73
2024-05-09T17:43:04.055Z,5.15
2024-05-09T17:45:31.943Z,4.45
2024-05-09T17:47:59.656Z,2.47
2024-05-09T17:50:33.877Z,3.47
2024-05-09T17:53:03.319Z,5.17
2024-05-09T17:55:30.345Z,3.42
2024-05-09T17:57:57.830Z,6.18
2024-05-09T18:00:36.095Z,4.78
2024-05-09T18:03:07.448Z,5.97
2024-05-09T18:05:37.949Z,4.77
2024-05-09T18:08:08.872Z,3.70
2024-05-09T18:10:38.751Z,5.40
2024-05-09T18:13:09.312Z,3.50
2024-05-09T18:15:37.273Z,5.18
2024-05-09T18:18:05.135Z,3.10
2024-05-09T18:20:40.731Z,4.25
2024-05-09T18:23:11.905Z,4.03
2024-05-09T18:25:38.821Z,4.32
2024-05-09T18:28:06.960Z,3.42
2024-05-09T18:30:36.224Z,4.00
2024-05-09T18:33:09.585Z,4.78
2024-05-09T18:35:37.038Z,4.82
2024-05-09T18:38:05.610Z,2.20
2024-05-09T18:40:36.147Z,5.45
2024-05-09T18:43:07.196Z,3.90
2024-05-09T18:45:36.672Z,4.70
2024-05-09T18:48:05.757Z,3.72
2024-05-09T18:50:37.536Z,4.38
2024-05-09T18:53:07.207Z,3.20
2024-05-09T18:55:34.096Z,4.60
2024-05-09T18:58:01.325Z,3.00
2024-05-09T19:00:34.771Z,2.08
2024-05-09T19:03:09.441Z,3.40
2024-05-09T19:05:39.003Z,3.95
2024-05-09T19:08:07.547Z,6.53
2024-05-09T19:10:35.847Z,5.40
2024-05-09T19:13:08.249Z,3.78
2024-05-09T19:15:39.245Z,4.95
2024-05-09T19:18:06.958Z,3.30
2024-05-09T19:20:35.753Z,4.47
2024-05-09T19:23:04.515Z,3.47
2024-05-09T19:25:32.973Z,3.97
2024-05-09T19:28:00.920Z,5.55
2024-05-09T19:30:36.870Z,5.15
2024-05-09T19:33:09.782Z,5.50
2024-05-09T19:35:38.823Z,5.97
2024-05-09T19:38:05.838Z,5.47
2024-05-09T19:40:34.592Z,6.80
2024-05-09T19:43:03.555Z,5.82
2024-05-09T19:45:33.632Z,4.33
2024-05-09T19:48:01.670Z,5.10
2024-05-09T19:50:37.016Z,7.22
2024-05-09T19:53:11.422Z,7.35
2024-05-09T19:55:39.232Z,7.07
2024-05-09T19:58:07.679Z,6.63
2024-05-09T20:00:38.827Z,8.25
2024-05-09T20:03:08.517Z,5.38
2024-05-09T20:05:36.260Z,5.45
2024-05-09T20:08:03.707Z,8.88
2024-05-09T20:10:33.281Z,11.27
2024-05-09T20:13:03.332Z,7.30
2024-05-09T20:15:31.707Z,5.55
2024-05-09T20:17:58.843Z,5.53
2024-05-09T20:20:33.799Z,9.63
2024-05-09T20:23:08.582Z,5.00
2024-05-09T20:25:35.507Z,4.55
2024-05-09T20:28:02.538Z,6.82
2024-05-09T20:30:32.912Z,7.13
2024-05-09T20:33:05.688Z,5.90
2024-05-09T20:35:34.179Z,5.10
2024-05-09T20:38:02.527Z,7.88
2024-05-09T20:40:34.411Z,4.80
2024-05-09T20:43:05.086Z,4.07
2024-05-09T20:45:32.328Z,5.35
2024-05-09T20:47:59.394Z,6.03
2024-05-09T20:50:36.313Z,7.32
2024-05-09T20:53:09.431Z,7.70
2024-05-09T20:55:36.845Z,6.07
2024-05-09T20:58:03.817Z,7.70
2024-05-09T21:00:39.272Z,6.80
2024-05-09T21:03:10.180Z,6.13
2024-05-09T21:05:37.352Z,5.47
2024-05-09T21:08:04.625Z,7.55
2024-05-09T21:10:33.437Z,7.22
2024-05-09T21:13:02.905Z,8.30
2024-05-09T21:15:30.494Z,6.25
2024-05-09T21:17:57.510Z,7.47
2024-05-09T21:20:30.994Z,4.00
2024-05-09T21:22:59.700Z,5.25
2024-05-09T21:25:26.559Z,5.20
2024-05-09T21:27:53.577Z,8.13
2024-05-09T21:30:31.795Z,8.27
2024-05-09T21:33:12.893Z,6.07
2024-05-09T21:35:42.366Z,6.07
2024-05-09T21:38:09.339Z,5.22
2024-05-09T21:40:37.473Z,4.30
2024-05-09T21:43:07.138Z,5.45
2024-05-09T21:45:35.252Z,5.80
2024-05-09T21:48:06.890Z,6.25
2024-05-09T21:50:39.892Z,5.80
2024-05-09T21:53:09.495Z,4.75
2024-05-09T21:55:36.446Z,4.60
2024-05-09T21:58:03.756Z,5.03
2024-05-09T22:00:36.596Z,6.32
2024-05-09T22:03:10.279Z,4.80
2024-05-09T22:05:41.939Z,6.97
2024-05-09T22:08:09.119Z,5.00
2024-05-09T22:10:38.382Z,4.25
2024-05-09T22:13:06.978Z,4.97
2024-05-09T22:15:39.937Z,7.00
2024-05-09T22:18:09.180Z,4.85
2024-05-09T22:20:39.392Z,5.32
2024-05-09T22:23:08.460Z,5.50
2024-05-09T22:25:36.466Z,5.93
2024-05-09T22:28:03.827Z,5.45
2024-05-09T22:30:36.172Z,5.38
2024-05-09T22:33:11.181Z,4.32
2024-05-09T22:35:40.465Z,5.78
2024-05-09T22:38:07.687Z,5.22
2024-05-09T22:40:45.210Z,4.57
2024-05-09T22:43:21.023Z,4.30
2024-05-09T22:45:49.963Z,5.88
2024-05-09T22:48:17.064Z,4.72
2024-05-09T22:50:44.886Z,5.00
2024-05-09T22:53:11.739Z,4.38
2024-05-09T22:55:38.525Z,6.00
2024-05-09T22:58:05.467Z,5.45
2024-05-09T23:00:33.375Z,6.10
2024-05-09T23:03:01.587Z,4.97
2024-05-09T23:05:29.618Z,5.30
2024-05-09T23:07:56.714Z,7.30
2024-05-09T23:10:30.748Z,4.43
2024-05-09T23:13:02.242Z,5.85
2024-05-09T23:15:29.465Z,5.10
2024-05-09T23:17:57.446Z,5.57
2024-05-09T23:22:54.445Z,6.13
2024-05-09T23:25:21.290Z,5.07
2024-05-09T23:27:48.218Z,5.95
2024-05-09T23:30:25.541Z,6.13
2024-05-09T23:32:59.722Z,7.78
2024-05-09T23:35:26.772Z,4.60
2024-05-09T23:37:53.637Z,3.53
2024-05-09T23:40:23.301Z,4.13
2024-05-09T23:42:50.887Z,4.40
2024-05-09T23:45:17.778Z,4.85
2024-05-09T23:47:44.837Z,4.13
2024-05-09T23:50:16.953Z,4.07
2024-05-09T23:52:50.620Z,3.70
2024-05-09T23:55:17.753Z,5.50
2024-05-09T23:57:44.811Z,4.18
